Aérodrome :
LOGIN :

S'inscrire | Disclaimer

   EN    FR    IT 

 










Légende :    VFR   VFR Marginal   IFR   IFR Intensif   IFR Très Intensif
Visi : 
Plafond : 
>= 8 km
>= 3000ft
5 à 8 km
1000 à 3000 ft
1500m à 5 km
500 à 1000 ft
800 à 1500m
200 à 500 ft
< 800m
< 200 ft
Symboles :   Orages  Brouillard  Fortes neiges  Fortes précipitations  Vent > 20 kt
SIGMETs :   Divers  Orages  Givrage  Turbulence  Onde Orograph.  Cendres Volcan.






- Altitude de l'aérodrome : 42 ft
- Code IATA : KGD


UMKK - Khrabrava - Kaliningrad

DERNIER METAR :
  • 070130Z 23004MPS CAVOK 14/11 Q1009 R24/CLRD95 NOSIG RMK QFE755/1007

METARs EXPIRÉS :
  • 070100Z 23005MPS CAVOK 14/11 Q1008 R24/95D NOSIG RMK QFE755/1007
  • 070030Z 22004MPS CAVOK 13/10 Q1008 R24/95D NOSIG RMK QFE755/1007
  • 070000Z 23004MPS CAVOK 14/10 Q1008 R24/CLRD95 NOSIG RMK QFE755/1007
  • 062330Z 24004MPS CAVOK 13/10 Q1009 R24/CLRD95 NOSIG RMK QFE755/1007
  • 062300Z 24004MPS CAVOK 13/10 Q1009 R24/CLRD95 NOSIG RMK QFE755/1007

TAF TAF UMKK
Valide du 07 à 00h jusqu'au 08 à 00h UTC


062253Z 0700/0724 23006G13MPS 9999 SCT025CB
TEMPO 0700/0707 3100 -SHRA FEW011 BKN016CB
PROB40
TEMPO 0700/0707 2000 TSRA SCT010 BKN020CB
BECMG 0703/0705 26008G14MPS
TEMPO 0707/0717 28011G17MPS -SHRA BKN016CB
BECMG 0718/0720 21005G10MPS



MET'MAP, la Météo Aéronautique d'un coup d'oeil ! - Copyright ORBIFLY Décembre 2007 - Disclaimer

ORBIFLY MET'MAP TEAM :

Programmation & Développement : Alexandra Zaïnal
Sur une idée originale de : Baudouin d'Aumeries
Assistance à la programmation : Marc-Olivier Méhu
Soutien technique & logistique : Manuel Goepfert

Contact : metmap@orbifly.com




SOURCES & CREDITS :

   NOAA